Terminal Aerodrome Forecast
Issued by NWS Mobile, AL

Home | Current Version | Previous Version | Text Only | Print | Product List | Glossary On
Versions: 1 2 3 4 5 6 7 8 9 10 11 12 13 14 15 16 17 18 19 20 21 22 23 24 25 26
000
FTUS44 KMOB 260524
TAFPNS
TAF
KPNS 260524Z 2606/2706 23005KT P6SM SKC
     FM260900 18003KT P6SM FEW250
     FM261400 17011G19KT P6SM FEW050 BKN250
     FM262300 17016G23KT P6SM OVC015
     FM270300 16016KT P6SM VCSH OVC015=

USA.gov is the U.S. government's official web portal to all federal, state and local government web resources and services.